createdAt,value
2019-04-23T00:00:08.834Z,9.30
2019-04-23T00:05:41.803Z,9.36
2019-04-23T00:08:07.698Z,9.43
2019-04-23T00:10:53.749Z,9.46
2019-04-23T00:12:59.144Z,9.44
2019-04-23T00:16:10.383Z,9.51
2019-04-23T00:18:36.954Z,9.53
2019-04-23T00:21:33.416Z,9.54
2019-04-23T00:24:10.265Z,9.52
2019-04-23T00:26:37.218Z,9.47
2019-04-23T00:31:40.864Z,9.41
2019-04-23T00:34:09.272Z,9.43
2019-04-23T00:39:08.316Z,9.51
2019-04-23T00:41:48.195Z,9.52
2019-04-23T00:44:15.076Z,9.51
2019-04-23T00:46:48.660Z,9.59
2019-04-23T00:49:19.950Z,9.64
2019-04-23T00:51:50.113Z,9.64
2019-04-23T00:54:26.212Z,9.59
2019-04-23T00:56:55.385Z,9.60
2019-04-23T00:59:21.477Z,9.56
2019-04-23T01:02:13.307Z,9.44
2019-04-23T01:04:26.611Z,9.34
2019-04-23T01:07:02.516Z,9.23
2019-04-23T01:09:37.301Z,9.11
2019-04-23T01:12:06.114Z,9.04
2019-04-23T01:14:32.547Z,9.02
2019-04-23T01:17:11.305Z,9.03
2019-04-23T01:19:47.727Z,9.09
2019-04-23T01:21:55.859Z,9.14
2019-04-23T01:24:50.801Z,9.21
2019-04-23T01:30:19.759Z,9.30
2019-04-23T01:32:51.801Z,9.36
2019-04-23T01:35:36.435Z,9.45
2019-04-23T01:37:53.884Z,9.45
2019-04-23T01:43:14.365Z,9.45
2019-04-23T01:48:13.255Z,9.59
2019-04-23T01:50:37.770Z,9.62
2019-04-23T01:53:10.298Z,9.65
2019-04-23T01:55:36.752Z,9.63
2019-04-23T01:58:32.428Z,9.63
2019-04-23T02:00:41.030Z,9.66
2019-04-23T02:03:09.427Z,9.64
2019-04-23T02:05:44.955Z,9.60
2019-04-23T02:10:50.992Z,9.57
2019-04-23T02:13:19.276Z,9.53
2019-04-23T02:15:47.503Z,9.59
2019-04-23T02:18:16.271Z,9.60
2019-04-23T02:20:55.176Z,9.58
2019-04-23T02:23:39.715Z,9.58
2019-04-23T02:26:08.999Z,9.53
2019-04-23T02:28:49.584Z,9.53
2019-04-23T02:36:18.399Z,9.56
2019-04-23T02:38:52.282Z,9.58
2019-04-23T02:41:31.647Z,9.61
2019-04-23T02:43:59.179Z,9.65
2019-04-23T02:48:59.247Z,9.60
2019-04-23T02:51:48.113Z,9.58
2019-04-23T02:56:37.446Z,9.56
2019-04-23T03:04:08.138Z,9.49
2019-04-23T03:06:38.130Z,9.51
2019-04-23T03:11:41.796Z,9.43
2019-04-23T03:14:27.251Z,9.45
2019-04-23T03:22:37.722Z,9.49
2019-04-23T03:25:10.299Z,9.50
2019-04-23T03:27:33.780Z,9.56
2019-04-23T03:30:17.005Z,9.60
2019-04-23T03:32:45.827Z,9.62
2019-04-23T03:36:33.696Z,9.66
2019-04-23T03:37:50.810Z,9.73
2019-04-23T03:42:48.665Z,9.80
2019-04-23T03:45:35.253Z,9.84
2019-04-23T03:47:50.420Z,9.80
2019-04-23T03:57:52.279Z,9.86
2019-04-23T04:03:12.723Z,9.92
2019-04-23T04:05:42.148Z,9.96
2019-04-23T04:10:44.544Z,10.12
2019-04-23T04:13:11.904Z,10.28
2019-04-23T04:18:24.004Z,10.71
2019-04-23T04:20:49.375Z,10.80
2019-04-23T04:23:27.700Z,10.96
2019-04-23T04:25:51.570Z,11.03
2019-04-23T04:28:17.811Z,11.02
2019-04-23T04:30:48.144Z,11.04
2019-04-23T04:36:10.661Z,11.10
2019-04-23T04:38:36.019Z,11.10
2019-04-23T04:43:31.292Z,11.09
2019-04-23T04:46:21.185Z,11.12
2019-04-23T04:48:32.222Z,11.06
2019-04-23T04:51:15.769Z,11.09
2019-04-23T04:58:44.053Z,11.38
2019-04-23T05:01:13.746Z,11.49
2019-04-23T05:03:29.202Z,11.63
2019-04-23T05:06:16.185Z,11.74
2019-04-23T05:11:17.434Z,11.90
2019-04-23T05:13:44.532Z,11.93
2019-04-23T05:16:13.932Z,11.98
2019-04-23T05:18:53.512Z,12.15
2019-04-23T05:21:20.770Z,12.28
2019-04-23T05:26:26.564Z,12.51
2019-04-23T05:31:23.695Z,12.81
2019-04-23T05:34:01.470Z,12.95
2019-04-23T05:41:29.837Z,13.38
2019-04-23T05:44:05.118Z,13.52
2019-04-23T05:46:45.902Z,13.65
2019-04-23T05:49:09.237Z,13.87
2019-04-23T05:51:48.601Z,14.01
2019-04-23T05:54:06.767Z,14.53
2019-04-23T05:56:38.602Z,15.21
2019-04-23T05:59:11.813Z,16.58
2019-04-23T06:06:54.123Z,18.25
2019-04-23T06:14:32.884Z,19.25
2019-04-23T06:16:55.396Z,20.09
2019-04-23T06:19:18.718Z,20.67
2019-04-23T06:21:57.508Z,21.35
2019-04-23T06:24:27.329Z,20.88
2019-04-23T06:29:37.602Z,19.47
2019-04-23T06:31:54.139Z,18.97
2019-04-23T06:34:31.180Z,18.98
2019-04-23T06:36:58.931Z,18.97
2019-04-23T06:39:36.973Z,19.01
2019-04-23T06:42:02.102Z,18.86
2019-04-23T06:44:57.638Z,18.98
2019-04-23T06:49:49.501Z,18.77
2019-04-23T06:52:19.136Z,18.72
2019-04-23T06:54:47.664Z,18.65
2019-04-23T06:57:22.237Z,19.08
2019-04-23T06:59:48.440Z,19.42
2019-04-23T07:05:01.767Z,19.85
2019-04-23T07:07:42.621Z,19.91
2019-04-23T07:09:52.370Z,20.22
2019-04-23T07:12:44.867Z,20.03
2019-04-23T07:17:24.673Z,20.14
2019-04-23T07:20:04.635Z,19.95
2019-04-23T07:22:26.811Z,19.83
2019-04-23T07:25:20.362Z,19.86
2019-04-23T07:30:11.642Z,19.64
2019-04-23T07:32:36.245Z,19.73
2019-04-23T07:35:11.587Z,19.65
2019-04-23T07:37:48.890Z,19.73
2019-04-23T07:43:23.395Z,20.39
2019-04-23T07:46:12.282Z,20.41
2019-04-23T07:48:28.828Z,20.09
2019-04-23T07:51:06.429Z,20.25
2019-04-23T07:53:40.128Z,20.21
2019-04-23T07:58:33.532Z,20.10
2019-04-23T08:01:12.570Z,20.27
2019-04-23T08:03:45.097Z,20.35
2019-04-23T08:06:15.301Z,20.63
2019-04-23T08:08:50.563Z,20.83
2019-04-23T08:13:57.273Z,20.97
2019-04-23T08:18:55.605Z,21.08
2019-04-23T08:21:24.731Z,21.13
2019-04-23T08:29:41.367Z,21.63
2019-04-23T08:32:13.875Z,21.98
2019-04-23T08:34:54.702Z,22.01
2019-04-23T08:37:32.491Z,22.21
2019-04-23T08:39:46.475Z,22.44
2019-04-23T08:48:17.310Z,21.75
2019-04-23T08:50:40.769Z,21.61
2019-04-23T08:53:23.265Z,21.21
2019-04-23T08:55:46.367Z,20.93
2019-04-23T08:58:14.101Z,21.35
2019-04-23T09:03:31.354Z,21.54
2019-04-23T09:05:52.995Z,21.97
2019-04-23T09:08:25.303Z,21.80
2019-04-23T09:10:56.746Z,22.04
2019-04-23T09:13:51.961Z,21.96
2019-04-23T09:15:56.266Z,22.19
2019-04-23T09:20:55.166Z,22.18
2019-04-23T09:23:34.470Z,21.68
2019-04-23T09:25:57.575Z,21.90
2019-04-23T09:28:41.425Z,22.02
2019-04-23T09:31:27.308Z,22.23
2019-04-23T09:36:59.692Z,21.81
2019-04-23T09:40:10.870Z,21.75
2019-04-23T09:42:47.886Z,21.27
2019-04-23T09:48:01.966Z,20.74
2019-04-23T09:50:36.571Z,20.59
2019-04-23T09:58:07.816Z,19.53
2019-04-23T10:00:40.648Z,19.53
2019-04-23T10:03:04.871Z,19.55
2019-04-23T10:05:31.023Z,19.47
2019-04-23T10:08:01.742Z,19.57
2019-04-23T10:10:22.874Z,19.54
2019-04-23T10:12:53.901Z,19.40
2019-04-23T10:15:28.840Z,19.44
2019-04-23T10:17:56.349Z,19.76
2019-04-23T10:20:26.752Z,19.76
2019-04-23T10:22:56.774Z,19.79
2019-04-23T10:25:27.897Z,19.89
2019-04-23T10:28:01.600Z,20.34
2019-04-23T10:30:29.011Z,20.57
2019-04-23T10:32:59.083Z,21.17
2019-04-23T10:35:38.729Z,21.45
2019-04-23T10:38:04.469Z,21.88
2019-04-23T10:40:36.481Z,22.12
2019-04-23T10:43:05.273Z,22.23
2019-04-23T10:46:23.203Z,22.41
2019-04-23T10:49:31.398Z,22.37
2019-04-23T10:51:51.021Z,22.28
2019-04-23T10:57:13.741Z,23.13
2019-04-23T10:59:38.808Z,23.45
2019-04-23T11:02:29.197Z,23.31
2019-04-23T11:07:27.200Z,22.54
2019-04-23T11:12:42.485Z,21.89
2019-04-23T11:15:52.412Z,21.95
2019-04-23T11:20:29.972Z,21.42
2019-04-23T11:22:50.924Z,21.24
2019-04-23T11:25:31.554Z,21.15
2019-04-23T11:35:50.611Z,21.23
2019-04-23T11:40:35.638Z,21.57
2019-04-23T11:43:14.689Z,21.20
2019-04-23T11:53:24.138Z,20.43
2019-04-23T11:56:09.188Z,20.77
2019-04-23T11:58:20.230Z,20.84
2019-04-23T12:06:45.715Z,19.96
2019-04-23T12:12:28.064Z,19.92
2019-04-23T12:19:57.754Z,20.01
2019-04-23T12:22:34.318Z,19.93
2019-04-23T12:27:30.572Z,19.72
2019-04-23T12:35:03.672Z,19.64
2019-04-23T12:38:04.163Z,19.65
2019-04-23T12:40:32.332Z,19.93
2019-04-23T12:45:27.433Z,19.92
2019-04-23T12:47:56.699Z,19.74
2019-04-23T12:55:35.880Z,19.99
2019-04-23T12:58:01.209Z,19.88
2019-04-23T13:00:33.082Z,19.79
2019-04-23T13:03:16.977Z,19.94
2019-04-23T13:05:35.864Z,19.75
2019-04-23T13:08:08.016Z,19.70
2019-04-23T13:15:40.807Z,19.07
2019-04-23T13:18:15.297Z,18.75
2019-04-23T13:20:38.486Z,18.69
2019-04-23T13:23:16.552Z,18.55
2019-04-23T13:25:59.599Z,18.44
2019-04-23T13:33:52.186Z,18.46
2019-04-23T13:38:40.370Z,18.39
2019-04-23T13:41:23.487Z,18.40
2019-04-23T13:43:45.423Z,18.48
2019-04-23T13:48:42.338Z,18.36
2019-04-23T13:51:26.300Z,18.16
2019-04-23T13:54:09.707Z,18.09
2019-04-23T13:56:47.929Z,18.11
2019-04-23T13:58:55.010Z,17.93
2019-04-23T14:01:30.687Z,17.84
2019-04-23T14:04:20.847Z,17.79
2019-04-23T14:11:30.965Z,18.54
2019-04-23T14:14:22.302Z,18.75
2019-04-23T14:19:23.261Z,18.59
2019-04-23T14:21:44.414Z,18.72
2019-04-23T14:26:50.877Z,18.61
2019-04-23T14:29:21.718Z,18.53
2019-04-23T14:32:01.324Z,18.25
2019-04-23T14:34:29.105Z,18.27
2019-04-23T14:36:59.035Z,18.27
2019-04-23T14:39:24.059Z,18.36
2019-04-23T14:42:06.961Z,18.42
2019-04-23T14:44:31.433Z,18.59
2019-04-23T14:49:55.427Z,18.83
2019-04-23T14:52:12.175Z,18.78
2019-04-23T14:55:22.621Z,18.83
2019-04-23T14:57:31.714Z,18.93
2019-04-23T14:59:56.941Z,18.91
2019-04-23T15:02:25.664Z,18.68
2019-04-23T15:04:56.561Z,18.66
2019-04-23T15:10:07.017Z,18.32
2019-04-23T15:12:30.131Z,18.12
2019-04-23T15:15:06.185Z,18.04
2019-04-23T15:17:34.067Z,18.04
2019-04-23T15:20:11.867Z,18.07
2019-04-23T15:22:59.815Z,18.10
2019-04-23T15:25:25.599Z,18.04
2019-04-23T15:30:03.764Z,18.00
2019-04-23T15:33:03.893Z,17.90
2019-04-23T15:35:23.864Z,17.76
2019-04-23T15:38:12.050Z,17.50
2019-04-23T15:43:00.966Z,17.40
2019-04-23T15:45:21.364Z,17.26
2019-04-23T15:47:56.773Z,17.17
2019-04-23T15:50:26.629Z,17.02
2019-04-23T15:55:27.881Z,16.96
2019-04-23T15:58:14.281Z,16.97
2019-04-23T16:02:33.272Z,17.00
2019-04-23T16:05:03.765Z,17.04
2019-04-23T16:07:51.909Z,17.04
2019-04-23T16:10:28.825Z,16.93
2019-04-23T16:13:02.926Z,16.94
2019-04-23T16:15:40.364Z,16.88
2019-04-23T16:18:23.691Z,16.86
2019-04-23T16:23:15.234Z,16.81
2019-04-23T16:25:49.386Z,16.77
2019-04-23T16:28:18.871Z,16.71
2019-04-23T16:31:00.877Z,16.60
2019-04-23T16:33:18.648Z,16.52
2019-04-23T16:38:45.541Z,16.47
2019-04-23T16:41:06.227Z,16.41
2019-04-23T16:43:44.054Z,16.26
2019-04-23T16:46:07.113Z,16.24
2019-04-23T16:49:02.853Z,16.19
2019-04-23T16:51:26.078Z,16.16
2019-04-23T16:53:54.151Z,16.13
2019-04-23T17:01:17.182Z,16.08
2019-04-23T17:03:54.887Z,16.13
2019-04-23T17:06:15.886Z,16.09
2019-04-23T17:09:07.032Z,16.10
2019-04-23T17:11:19.143Z,16.09
2019-04-23T17:13:58.994Z,16.04
2019-04-23T17:18:54.846Z,15.93
2019-04-23T17:21:23.357Z,15.94
2019-04-23T17:24:08.089Z,15.95
2019-04-23T17:26:31.669Z,15.91
2019-04-23T17:29:08.000Z,15.90
2019-04-23T17:31:35.392Z,15.84
2019-04-23T17:34:17.516Z,15.86
2019-04-23T17:40:08.403Z,15.77
2019-04-23T17:42:48.293Z,15.70
2019-04-23T17:48:13.238Z,15.65
2019-04-23T17:50:52.731Z,15.62
2019-04-23T17:56:01.505Z,15.55
2019-04-23T18:01:11.264Z,15.54
2019-04-23T18:03:41.404Z,15.45
2019-04-23T18:06:14.130Z,15.31
2019-04-23T18:08:34.051Z,15.15
2019-04-23T18:11:12.886Z,15.02
2019-04-23T18:18:44.897Z,14.78
2019-04-23T18:21:56.578Z,14.66
2019-04-23T18:24:36.784Z,14.67
2019-04-23T18:30:02.726Z,14.66
2019-04-23T18:32:42.875Z,14.63
2019-04-23T18:37:34.447Z,14.64
2019-04-23T18:40:08.565Z,14.66
2019-04-23T18:45:14.768Z,14.71
2019-04-23T18:47:49.070Z,14.75
2019-04-23T18:50:22.511Z,14.80
2019-04-23T18:55:36.501Z,14.85
2019-04-23T18:58:04.223Z,14.85
2019-04-23T19:00:36.581Z,14.82
2019-04-23T19:03:37.354Z,14.82
2019-04-23T19:06:32.070Z,14.83
2019-04-23T19:09:19.823Z,14.78
2019-04-23T19:17:36.013Z,14.76
2019-04-23T19:19:48.630Z,14.74
2019-04-23T19:24:45.153Z,14.73
2019-04-23T19:27:16.793Z,14.68
2019-04-23T19:32:14.705Z,14.64
2019-04-23T19:34:43.922Z,14.64
2019-04-23T19:37:22.865Z,14.63
2019-04-23T19:39:47.948Z,14.65
2019-04-23T19:42:19.691Z,14.60
2019-04-23T19:45:17.169Z,14.59
2019-04-23T19:47:37.860Z,14.59
2019-04-23T19:50:02.180Z,14.56
2019-04-23T19:52:52.616Z,14.51
2019-04-23T19:54:58.581Z,14.47
2019-04-23T19:57:42.529Z,14.47
2019-04-23T20:00:02.463Z,14.47
2019-04-23T20:02:58.169Z,14.46
2019-04-23T20:05:07.237Z,14.45
2019-04-23T20:07:46.091Z,14.44
2019-04-23T20:10:07.888Z,14.43
2019-04-23T20:12:40.808Z,14.44
2019-04-23T20:15:07.394Z,14.49
2019-04-23T20:17:43.150Z,14.48
2019-04-23T20:20:19.396Z,14.48
2019-04-23T20:22:52.033Z,14.48
2019-04-23T20:26:01.141Z,14.50
2019-04-23T20:30:54.856Z,14.48
2019-04-23T20:33:55.540Z,14.46
2019-04-23T20:36:25.301Z,14.51
2019-04-23T20:38:54.730Z,14.48
2019-04-23T20:41:23.703Z,14.50
2019-04-23T20:43:55.551Z,14.55
2019-04-23T20:46:14.962Z,14.50
2019-04-23T20:48:55.015Z,14.45
2019-04-23T20:51:24.789Z,14.42
2019-04-23T20:53:57.395Z,14.46
2019-04-23T20:56:25.378Z,14.42
2019-04-23T20:59:00.171Z,14.43
2019-04-23T21:01:37.188Z,14.42
2019-04-23T21:04:04.927Z,14.39
2019-04-23T21:06:45.905Z,14.33
2019-04-23T21:11:48.326Z,14.22
2019-04-23T21:16:42.729Z,14.05
2019-04-23T21:19:24.702Z,13.98
2019-04-23T21:22:12.926Z,13.89
2019-04-23T21:24:42.758Z,13.90
2019-04-23T21:27:27.834Z,13.86
2019-04-23T21:29:58.737Z,13.88
2019-04-23T21:32:33.452Z,13.89
2019-04-23T21:35:05.644Z,13.94
2019-04-23T21:37:54.231Z,13.92
2019-04-23T21:43:55.491Z,13.95
2019-04-23T21:46:24.227Z,14.01
2019-04-23T21:48:59.877Z,14.01
2019-04-23T21:53:42.669Z,14.03
2019-04-23T21:56:15.221Z,13.99
2019-04-23T21:58:53.396Z,14.05
2019-04-23T22:01:21.327Z,14.06
2019-04-23T22:04:03.896Z,14.08
2019-04-23T22:06:25.603Z,14.12
2019-04-23T22:08:56.322Z,14.14
2019-04-23T22:11:42.656Z,14.18
2019-04-23T22:16:37.091Z,14.21
2019-04-23T22:21:36.176Z,14.33
2019-04-23T22:24:03.105Z,14.33
2019-04-23T22:29:13.861Z,14.34
2019-04-23T22:31:40.263Z,14.32
2019-04-23T22:36:39.387Z,14.36
2019-04-23T22:41:41.653Z,14.39
2019-04-23T22:44:09.554Z,14.40
2019-04-23T22:49:28.634Z,14.42
2019-04-23T22:52:05.974Z,14.42
2019-04-23T22:54:40.162Z,14.40
2019-04-23T22:56:54.308Z,14.44
2019-04-23T23:02:22.978Z,14.43
2019-04-23T23:04:51.618Z,14.39
2019-04-23T23:07:20.170Z,14.38
2019-04-23T23:09:56.115Z,14.39
2019-04-23T23:12:26.569Z,14.33
2019-04-23T23:14:54.185Z,14.33
2019-04-23T23:17:24.198Z,14.34
2019-04-23T23:20:01.064Z,14.32
2019-04-23T23:22:51.446Z,14.26
2019-04-23T23:25:04.766Z,14.21
2019-04-23T23:27:32.330Z,14.13
2019-04-23T23:30:05.048Z,13.95
2019-04-23T23:32:31.193Z,13.83
2019-04-23T23:37:28.394Z,13.57
2019-04-23T23:40:14.702Z,13.43
2019-04-23T23:42:34.864Z,13.27
2019-04-23T23:45:21.637Z,13.16
2019-04-23T23:47:39.400Z,13.08
2019-04-23T23:50:25.142Z,13.04
2019-04-23T23:52:48.785Z,12.94
2019-04-23T23:55:16.604Z,12.92
2019-04-23T23:57:50.925Z,12.83
